Time;durP1;ratioP1;P1;durP2;ratioP2;P2;SDS_P1;SDS_P2;PMS_P1;PMS_P2;Temp;Humidity;BMP_temperature;BMP_pressure;BME280_temperature;BME280_humidity;BME280_pressure;Samples;Min_cycle;Max_cycle;Signal;HPM_P1;HPM_P2
2022/07/01 00:00:03;;;;;;;4.60;1.10;;;16.00;99.90;;;;;;5076025;28;20392;-53
2022/07/01 00:02:29;;;;;;;4.30;0.80;;;16.10;99.90;;;;;;5073242;28;20398;-53
2022/07/01 00:04:55;;;;;;;5.18;1.10;;;16.20;99.90;;;;;;5091055;28;20871;-53
2022/07/01 00:07:20;;;;;;;4.20;0.90;;;16.20;99.90;;;;;;5061874;28;20466;-53
2022/07/01 00:09:46;;;;;;;4.00;0.90;;;16.20;80.30;;;;;;5079207;28;20395;-52
2022/07/01 00:12:11;;;;;;;5.50;1.10;;;16.20;99.90;;;;;;5070135;28;20917;-53
2022/07/01 00:14:37;;;;;;;4.20;1.00;;;16.10;99.90;;;;;;5071165;28;20380;-54
2022/07/01 00:17:03;;;;;;;6.40;1.00;;;15.80;4.00;;;;;;5070230;28;20406;-54
2022/07/01 00:19:28;;;;;;;5.60;1.00;;;15.80;85.40;;;;;;5071258;28;20433;-53
2022/07/01 00:21:54;;;;;;;4.40;1.00;;;15.80;99.90;;;;;;5070278;28;20869;-53
2022/07/01 00:24:20;;;;;;;5.20;1.10;;;15.80;99.90;;;;;;5070475;28;20524;-53
2022/07/01 00:26:45;;;;;;;4.90;1.00;;;15.80;99.90;;;;;;5070757;28;20416;-52
2022/07/01 00:29:11;;;;;;;4.28;0.93;;;15.80;99.90;;;;;;5070353;28;20380;-53
2022/07/01 00:31:37;;;;;;;4.10;0.90;;;15.80;99.90;;;;;;5071023;28;20376;-53
2022/07/01 00:34:03;;;;;;;4.30;1.02;;;15.70;99.90;;;;;;5071562;28;20845;-53
2022/07/01 00:36:28;;;;;;;4.53;1.10;;;15.50;99.90;;;;;;5090922;28;20393;-53
2022/07/01 00:38:54;;;;;;;6.97;1.70;;;15.50;99.90;;;;;;5084988;28;20436;-53
2022/07/01 00:41:20;;;;;;;4.50;0.90;;;15.50;99.90;;;;;;5078271;28;20419;-53
2022/07/01 00:43:45;;;;;;;5.40;1.00;;;15.50;99.90;;;;;;5084204;28;20473;-54
2022/07/01 00:46:12;;;;;;;5.10;1.20;;;15.40;99.90;;;;;;5083425;28;20441;-54
2022/07/01 00:48:38;;;;;;;5.00;1.20;;;15.30;99.90;;;;;;5073140;28;20384;-54
2022/07/01 00:51:04;;;;;;;4.78;1.75;;;15.20;99.90;;;;;;5080434;28;20881;-54
2022/07/01 00:53:31;;;;;;;5.63;1.30;;;15.20;99.90;;;;;;5078871;28;20416;-54
2022/07/01 00:55:57;;;;;;;5.20;1.20;;;15.30;99.90;;;;;;5079388;28;20416;-54
2022/07/01 00:58:26;;;;;;;4.85;1.10;;;15.40;99.90;;;;;;5070692;28;20862;-54
2022/07/01 01:00:52;;;;;;;4.22;1.00;;;15.30;99.90;;;;;;5071330;28;20392;-54
2022/07/01 01:03:17;;;;;;;5.57;1.17;;;15.30;99.90;;;;;;5081578;28;20778;-54
2022/07/01 01:05:43;;;;;;;4.60;0.98;;;15.40;99.90;;;;;;5085558;28;20414;-54
2022/07/01 01:08:12;;;;;;;5.30;1.20;;;15.30;99.90;;;;;;5079667;28;20387;-54
2022/07/01 01:10:38;;;;;;;4.30;1.00;;;15.20;99.90;;;;;;5074256;28;20881;-54
2022/07/01 01:13:04;;;;;;;5.10;1.30;;;15.20;99.90;;;;;;5089531;28;20378;-54
2022/07/01 01:15:30;;;;;;;4.03;1.05;;;15.30;99.90;;;;;;5076513;28;20396;-54
2022/07/01 01:17:56;;;;;;;3.97;0.90;;;15.30;99.90;;;;;;5070537;28;20394;-53
2022/07/01 01:20:22;;;;;;;4.40;1.17;;;15.10;99.90;;;;;;5081390;28;20479;-53
2022/07/01 01:22:48;;;;;;;5.80;1.00;;;15.10;99.90;;;;;;5069896;28;20489;-52
2022/07/01 01:25:15;;;;;;;4.20;1.00;;;15.10;99.90;;;;;;5080341;28;20402;-53
2022/07/01 01:27:40;;;;;;;3.95;0.80;;;15.10;99.90;;;;;;5088724;28;20424;-53
2022/07/01 01:30:09;;;;;;;4.15;0.90;;;15.00;99.90;;;;;;5084212;28;20780;-53
2022/07/01 01:32:36;;;;;;;4.00;0.90;;;15.00;99.90;;;;;;5082956;28;20392;-53
2022/07/01 01:35:02;;;;;;;4.95;1.08;;;15.10;99.90;;;;;;5081690;28;20517;-53
2022/07/01 01:37:28;;;;;;;4.65;0.80;;;15.00;99.90;;;;;;5055406;28;20467;-54
2022/07/01 01:39:54;;;;;;;3.92;0.90;;;15.00;99.90;;;;;;5077265;28;20846;-53
2022/07/01 01:42:21;;;;;;;4.30;1.00;;;15.00;99.90;;;;;;5085883;28;20394;-53
2022/07/01 01:44:47;;;;;;;3.80;0.90;;;15.10;99.90;;;;;;5079840;28;20439;-54
2022/07/01 01:47:12;;;;;;;5.50;1.00;;;15.10;99.90;;;;;;5086128;28;20410;-53
2022/07/01 01:49:38;;;;;;;3.80;0.73;;;15.10;99.90;;;;;;5087992;28;20462;-53
2022/07/01 01:52:04;;;;;;;4.90;0.90;;;15.00;99.90;;;;;;5064639;28;20380;-53
2022/07/01 01:54:30;;;;;;;4.90;0.90;;;15.10;99.90;;;;;;5078538;28;20465;-54
2022/07/01 01:56:57;;;;;;;4.20;1.10;;;15.10;99.90;;;;;;5077944;28;20406;-53
2022/07/01 01:59:22;;;;;;;3.90;0.90;;;15.20;99.90;;;;;;5069353;28;20396;-53
2022/07/01 02:01:48;;;;;;;4.13;1.00;;;15.20;99.90;;;;;;5070336;28;20388;-52
2022/07/01 02:04:14;;;;;;;4.22;1.00;;;16.20;99.90;;;;;;5069086;28;20478;-53
2022/07/01 02:06:40;;;;;;;5.10;1.97;;;15.20;99.90;;;;;;5075233;28;20767;-53
2022/07/01 02:09:06;;;;;;;4.20;1.00;;;15.20;99.90;;;;;;5078011;28;20469;-53
2022/07/01 02:11:32;;;;;;;4.25;1.10;;;15.30;99.90;;;;;;5077316;28;20442;-53
2022/07/01 02:13:58;;;;;;;4.60;1.27;;;15.30;99.90;;;;;;5068077;28;20372;-55
2022/07/01 02:16:23;;;;;;;5.30;1.40;;;15.10;99.90;;;;;;5082995;28;20389;-53
2022/07/01 02:18:49;;;;;;;10.57;1.15;;;15.10;99.90;;;;;;5083812;28;20379;-52
2022/07/01 02:21:14;;;;;;;6.40;1.20;;;15.10;99.90;;;;;;5059709;28;20712;-52
2022/07/01 02:23:40;;;;;;;4.45;1.10;;;15.10;99.90;;;;;;5070254;28;20791;-53
2022/07/01 02:26:06;;;;;;;4.40;1.20;;;15.10;99.90;;;;;;5076670;28;20427;-53
2022/07/01 02:28:31;;;;;;;4.23;1.03;;;14.90;99.90;;;;;;5088664;28;20386;-53
2022/07/01 02:30:57;;;;;;;4.73;1.10;;;14.90;99.90;;;;;;5076142;28;20912;-52
2022/07/01 02:33:23;;;;;;;5.20;1.58;;;14.90;99.90;;;;;;5067971;28;20399;-52
2022/07/01 02:35:49;;;;;;;5.10;1.20;;;14.90;99.90;;;;;;5068756;28;20410;-53
2022/07/01 02:38:15;;;;;;;4.13;1.13;;;14.90;99.90;;;;;;5072585;28;20395;-53
2022/07/01 02:40:41;;;;;;;5.65;1.30;;;14.90;99.90;;;;;;5085010;28;20386;-53
2022/07/01 02:43:07;;;;;;;4.63;1.90;;;14.90;99.90;;;;;;5080453;28;20849;-53
2022/07/01 02:45:33;;;;;;;4.00;1.00;;;14.90;99.90;;;;;;5084703;28;20482;-53
2022/07/01 02:47:59;;;;;;;3.80;1.00;;;14.90;99.90;;;;;;5068583;28;20466;-54
2022/07/01 02:50:24;;;;;;;4.87;1.03;;;14.90;99.90;;;;;;5082059;28;20386;-52
2022/07/01 02:52:50;;;;;;;5.40;1.20;;;14.80;99.90;;;;;;5087274;28;20488;-52
2022/07/01 02:55:16;;;;;;;4.97;1.20;;;14.80;99.90;;;;;;5082854;28;20397;-53
2022/07/01 02:57:42;;;;;;;4.70;1.20;;;14.80;99.90;;;;;;5078599;28;20762;-52
2022/07/01 03:00:11;;;;;;;4.15;1.15;;;14.80;99.90;;;;;;5081091;28;20392;-53
2022/07/01 03:02:37;;;;;;;4.90;1.10;;;14.80;99.90;;;;;;5072717;28;20411;-54
2022/07/01 03:05:03;;;;;;;4.00;0.80;;;14.80;99.90;;;;;;5070268;28;20383;-53
2022/07/01 03:07:29;;;;;;;5.77;1.10;;;14.70;99.90;;;;;;5071338;28;20459;-54
2022/07/01 03:09:55;;;;;;;4.65;1.20;;;14.80;99.90;;;;;;5087767;28;20397;-52
2022/07/01 03:12:34;;;;;;;4.30;1.00;;;14.80;99.90;;;;;;5076805;28;20518;-53
2022/07/01 03:15:11;;;;;;;4.20;0.87;;;14.80;99.90;;;;;;5082767;28;20541;-53
2022/07/01 03:17:39;;;;;;;5.25;1.10;;;14.70;99.90;;;;;;5077815;28;20521;-53
2022/07/01 03:20:06;;;;;;;4.70;1.10;;;14.80;99.90;;;;;;5076730;28;20391;-54
2022/07/01 03:22:33;;;;;;;4.35;1.17;;;14.80;99.90;;;;;;5069884;28;20394;-53
2022/07/01 03:24:59;;;;;;;4.90;1.20;;;14.80;99.90;;;;;;5079259;28;20437;-53
2022/07/01 03:27:24;;;;;;;4.63;1.20;;;14.80;99.90;;;;;;5076195;28;20426;-54
2022/07/01 03:29:50;;;;;;;6.40;1.50;;;14.70;99.90;;;;;;5073719;28;20463;-52
2022/07/01 03:32:17;;;;;;;4.30;1.23;;;14.80;99.90;;;;;;5068505;28;20402;-52
2022/07/01 03:34:45;;;;;;;4.57;1.30;;;14.90;99.90;;;;;;5074137;28;20396;-52
2022/07/01 03:37:13;;;;;;;5.47;1.50;;;14.90;99.90;;;;;;5074731;28;20550;-52
2022/07/01 03:39:40;;;;;;;5.07;1.40;;;14.90;99.90;;;;;;5081123;28;20464;-52
2022/07/01 03:42:07;;;;;;;4.90;1.50;;;14.90;99.90;;;;;;5086509;28;20385;-53
2022/07/01 03:44:33;;;;;;;4.82;1.30;;;15.00;99.90;;;;;;5073115;28;20469;-53
2022/07/01 03:46:59;;;;;;;4.25;1.00;;;15.00;99.90;;;;;;5088439;28;20856;-52
2022/07/01 03:49:25;;;;;;;4.80;1.40;;;14.80;99.90;;;;;;5061139;28;20439;-53
2022/07/01 03:51:51;;;;;;;4.50;1.48;;;14.90;99.90;;;;;;5071391;28;20414;-52
2022/07/01 03:54:30;;;;;;;4.67;1.40;;;14.90;99.90;;;;;;5089423;28;20864;-53
2022/07/01 03:57:07;;;;;;;4.30;1.30;;;14.90;99.90;;;;;;5084667;28;20765;-53
2022/07/01 03:59:37;;;;;;;5.80;1.45;;;14.90;99.90;;;;;;5076177;28;20877;-54
2022/07/01 04:02:05;;;;;;;5.47;1.90;;;14.90;99.90;;;;;;5073338;28;20431;-53
2022/07/01 04:04:31;;;;;;;5.13;1.70;;;14.90;99.90;;;;;;5077913;28;21208;-53
2022/07/01 04:06:59;;;;;;;5.20;1.73;;;15.00;99.90;;;;;;5070687;28;20423;-52
2022/07/01 04:09:25;;;;;;;5.25;1.90;;;15.00;99.90;;;;;;5083877;28;20391;-53
2022/07/01 04:11:51;;;;;;;5.60;1.70;;;15.10;99.90;;;;;;5091207;28;20420;-53
2022/07/01 04:14:18;;;;;;;6.40;2.17;;;15.10;99.90;;;;;;5080916;28;20388;-53
2022/07/01 04:16:44;;;;;;;5.43;1.90;;;15.10;99.90;;;;;;5070835;28;20872;-53
2022/07/01 04:19:11;;;;;;;4.90;1.80;;;15.20;99.90;;;;;;5069556;28;20407;-53
2022/07/01 04:24:24;;;;;;;5.20;1.90;;;15.10;99.90;;;;;;5088380;28;20449;-54
2022/07/01 04:26:51;;;;;;;6.65;2.00;;;15.10;99.90;;;;;;5071535;28;20420;-53
2022/07/01 04:29:17;;;;;;;4.85;1.90;;;15.00;99.90;;;;;;5074966;28;20982;-53
2022/07/01 04:31:43;;;;;;;5.30;2.00;;;15.00;99.90;;;;;;5069906;28;20401;-53
2022/07/01 04:34:10;;;;;;;6.77;2.20;;;15.00;99.90;;;;;;5074255;28;20963;-53
2022/07/01 04:36:36;;;;;;;5.07;1.83;;;15.10;99.90;;;;;;5077789;28;20393;-53
2022/07/01 04:39:03;;;;;;;9.60;2.10;;;15.20;99.90;;;;;;5089909;28;20422;-53
2022/07/01 04:44:13;;;;;;;6.00;2.50;;;15.20;99.90;;;;;;5076355;28;20480;-53
2022/07/01 04:46:39;;;;;;;6.97;2.50;;;15.20;99.90;;;;;;5068491;28;20498;-53
2022/07/01 04:49:05;;;;;;;7.28;2.28;;;15.30;99.90;;;;;;5068552;28;20700;-53
2022/07/01 04:51:30;;;;;;;6.77;2.33;;;15.30;99.90;;;;;;5077384;28;20426;-54
2022/07/01 04:53:56;;;;;;;6.68;2.30;;;15.40;99.90;;;;;;5072089;28;20561;-53
2022/07/01 04:56:22;;;;;;;5.32;2.20;;;15.30;99.90;;;;;;5070483;28;20461;-53
2022/07/01 04:58:48;;;;;;;10.50;2.50;;;15.20;99.90;;;;;;5070317;28;20376;-53
2022/07/01 05:01:14;;;;;;;7.00;2.28;;;15.10;99.90;;;;;;5076812;28;20401;-53
2022/07/01 05:03:40;;;;;;;5.90;2.20;;;15.20;99.90;;;;;;5072354;28;20405;-54
2022/07/01 05:06:05;;;;;;;6.95;2.30;;;15.10;99.90;;;;;;5065554;28;20949;-53
2022/07/01 05:08:31;;;;;;;6.30;2.80;;;15.10;99.90;;;;;;5069801;28;20413;-52
2022/07/01 05:10:57;;;;;;;5.50;1.88;;;15.20;99.90;;;;;;5070767;28;20494;-52
2022/07/01 05:13:23;;;;;;;7.90;2.20;;;15.10;99.90;;;;;;5064605;28;20718;-52
2022/07/01 05:15:48;;;;;;;6.05;2.20;;;15.00;99.90;;;;;;5069975;28;20399;-52
2022/07/01 05:23:45;;;;;;;7.40;1.80;;;15.10;99.90;;;;;;5067727;28;20521;-53
2022/07/01 05:26:15;;;;;;;6.30;2.10;;;15.00;99.90;;;;;;5056556;28;20444;-53
2022/07/01 05:28:42;;;;;;;5.60;2.10;;;14.90;99.90;;;;;;5060067;28;20910;-53
2022/07/01 05:31:07;;;;;;;6.53;2.17;;;15.00;99.90;;;;;;5053997;28;20849;-53
2022/07/01 05:33:33;;;;;;;5.40;2.08;;;15.10;99.90;;;;;;5059334;28;20398;-53
2022/07/01 05:35:58;;;;;;;5.20;2.10;;;15.20;99.90;;;;;;5067226;28;20441;-53
2022/07/01 05:38:24;;;;;;;6.50;2.10;;;15.30;99.90;;;;;;5068308;28;20884;-53
2022/07/01 05:40:52;;;;;;;5.27;1.67;;;15.30;99.90;;;;;;5068892;28;20399;-53
2022/07/01 05:43:17;;;;;;;5.32;1.90;;;15.30;99.90;;;;;;5067788;28;20895;-53
2022/07/01 05:45:43;;;;;;;7.00;2.30;;;15.30;99.90;;;;;;5068368;28;20376;-53
2022/07/01 05:48:09;;;;;;;6.20;2.13;;;15.40;99.90;;;;;;5068707;28;20375;-53
2022/07/01 05:50:34;;;;;;;5.07;1.90;;;15.30;99.90;;;;;;5070270;28;20395;-57
2022/07/01 05:53:00;;;;;;;6.60;2.00;;;15.30;99.90;;;;;;5068619;28;20399;-53
2022/07/01 05:55:25;;;;;;;8.88;2.10;;;15.40;99.90;;;;;;5067886;28;20472;-57
2022/07/01 05:57:52;;;;;;;6.30;2.00;;;15.40;99.90;;;;;;5068716;28;20395;-53
2022/07/01 06:00:18;;;;;;;6.22;2.17;;;15.50;99.90;;;;;;5064805;28;20402;-53
2022/07/01 06:02:43;;;;;;;6.50;2.20;;;15.40;99.90;;;;;;5067880;28;20379;-53
2022/07/01 06:05:09;;;;;;;7.15;1.90;;;15.30;99.90;;;;;;5055621;28;20449;-53
2022/07/01 06:07:35;;;;;;;5.60;1.90;;;15.40;99.90;;;;;;5072208;28;20408;-53
2022/07/01 06:10:00;;;;;;;6.85;2.10;;;15.40;99.90;;;;;;5072201;28;20906;-53
2022/07/01 06:12:26;;;;;;;6.00;2.20;;;15.50;99.90;;;;;;5071890;28;20390;-53
2022/07/01 06:14:52;;;;;;;6.10;2.10;;;15.70;99.90;;;;;;5075675;28;20469;-54
2022/07/01 06:17:17;;;;;;;5.53;1.60;;;15.80;99.90;;;;;;5068025;28;20403;-53
2022/07/01 06:19:43;;;;;;;6.43;2.05;;;15.80;99.90;;;;;;5069325;28;20387;-54
2022/07/01 06:22:09;;;;;;;5.50;1.93;;;15.70;99.90;;;;;;5068578;28;20383;-54
2022/07/01 06:24:35;;;;;;;5.28;1.67;;;15.60;99.90;;;;;;5068685;28;20410;-54
2022/07/01 06:27:01;;;;;;;6.50;1.80;;;15.60;99.90;;;;;;5067571;28;20415;-53
2022/07/01 06:29:29;;;;;;;5.78;1.77;;;15.50;99.90;;;;;;5076051;28;21254;-54
2022/07/01 06:31:55;;;;;;;6.60;2.20;;;15.30;99.90;;;;;;5066408;28;20451;-52
2022/07/01 06:34:20;;;;;;;5.90;2.00;;;15.30;99.90;;;;;;5066392;28;20455;-54
2022/07/01 06:36:46;;;;;;;5.87;2.00;;;15.40;99.90;;;;;;5067946;28;20436;-53
2022/07/01 06:39:11;;;;;;;6.60;2.40;;;15.40;99.90;;;;;;5064637;28;20388;-53
2022/07/01 06:41:37;;;;;;;7.03;2.10;;;15.40;99.90;;;;;;5065951;28;20395;-53
2022/07/01 06:44:04;;;;;;;6.65;2.30;;;15.30;99.90;;;;;;5066562;28;20803;-53
2022/07/01 06:46:30;;;;;;;4.88;1.73;;;15.30;99.90;;;;;;5067519;28;20429;-53
2022/07/01 06:48:57;;;;;;;5.97;2.53;;;15.30;99.90;;;;;;5065772;28;20408;-53
2022/07/01 06:51:23;;;;;;;5.47;1.90;;;15.30;99.90;;;;;;5063704;28;20391;-55
2022/07/01 06:53:49;;;;;;;5.00;2.00;;;15.30;99.90;;;;;;5068341;28;20384;-53
2022/07/01 06:56:16;;;;;;;6.22;2.25;;;15.20;99.90;;;;;;5067592;28;20396;-54
2022/07/01 06:58:42;;;;;;;6.70;2.55;;;15.20;99.90;;;;;;5068241;28;20380;-54
2022/07/01 07:01:09;;;;;;;5.90;2.58;;;15.20;99.90;;;;;;5058846;28;20396;-53
2022/07/01 07:03:35;;;;;;;6.13;2.53;;;15.10;99.90;;;;;;5064609;28;20464;-54
2022/07/01 07:06:02;;;;;;;6.03;2.40;;;15.20;99.90;;;;;;5064710;28;20415;-53
2022/07/01 07:08:31;;;;;;;6.85;2.35;;;15.20;99.90;;;;;;5063844;28;20399;-53
2022/07/01 07:10:58;;;;;;;7.63;2.50;;;15.30;99.90;;;;;;5065272;28;20778;-53
2022/07/01 07:13:23;;;;;;;7.00;2.20;;;15.30;99.90;;;;;;5065772;28;20396;-53
2022/07/01 07:15:49;;;;;;;5.90;2.40;;;15.30;99.90;;;;;;5068198;28;20368;-53
2022/07/01 07:18:15;;;;;;;5.73;2.30;;;15.30;99.90;;;;;;5064065;28;20408;-54
2022/07/01 07:20:41;;;;;;;5.70;2.20;;;15.40;99.90;;;;;;5068686;28;20954;-53
2022/07/01 07:23:07;;;;;;;6.57;2.50;;;15.60;99.90;;;;;;5073540;28;20459;-53
2022/07/01 07:25:32;;;;;;;6.00;2.40;;;15.80;99.90;;;;;;5092086;28;20404;-53
2022/07/01 07:27:58;;;;;;;6.28;2.17;;;16.00;99.90;;;;;;5089786;28;20739;-53
2022/07/01 07:30:24;;;;;;;5.20;2.00;;;16.00;91.30;;;;;;5090717;28;20436;-53
2022/07/01 07:32:50;;;;;;;6.18;2.17;;;15.90;1.00;;;;;;5071528;28;20379;-53
2022/07/01 07:35:15;;;;;;;6.05;2.28;;;15.90;24.60;;;;;;5072785;28;20380;-53
2022/07/01 07:37:41;;;;;;;6.00;2.20;;;15.70;56.70;;;;;;5071642;28;20407;-53
2022/07/01 07:40:12;;;;;;;5.93;1.90;;;15.90;33.90;;;;;;5070845;28;20414;-52
2022/07/01 07:42:39;;;;;;;6.45;2.40;;;15.80;1.00;;;;;;5071180;28;20380;-53
2022/07/01 07:45:09;;;;;;;5.95;2.10;;;15.80;90.70;;;;;;5071010;28;20763;-53
2022/07/01 07:47:35;;;;;;;6.40;2.47;;;15.90;99.90;;;;;;5071459;28;20503;-52
2022/07/01 07:50:01;;;;;;;5.82;2.10;;;16.00;51.70;;;;;;5070572;28;20450;-53
2022/07/01 07:52:26;;;;;;;6.03;1.90;;;16.20;39.00;;;;;;5070798;28;20403;-52
2022/07/01 07:54:52;;;;;;;6.80;2.35;;;16.30;30.30;;;;;;5075113;28;20415;-52
2022/07/01 07:57:17;;;;;;;6.63;2.30;;;16.10;1.00;;;;;;5084386;28;20917;-53
2022/07/01 07:59:43;;;;;;;5.93;2.20;;;16.10;99.00;;;;;;5081989;28;21011;-53
2022/07/01 08:02:09;;;;;;;6.13;2.30;;;16.20;42.70;;;;;;5083915;28;20508;-53
2022/07/01 08:04:35;;;;;;;6.38;2.60;;;16.10;1.00;;;;;;5077803;28;20407;-54
2022/07/01 08:07:00;;;;;;;6.82;2.78;;;16.00;1.00;;;;;;5070298;28;20415;-53
2022/07/01 08:09:26;;;;;;;5.60;2.50;;;16.20;9.50;;;;;;5070918;28;20384;-53
2022/07/01 08:11:52;;;;;;;7.25;2.80;;;16.30;17.70;;;;;;5069580;28;20462;-52
2022/07/01 08:14:18;;;;;;;6.80;2.80;;;16.20;1.00;;;;;;5069594;28;20514;-53
2022/07/01 08:16:44;;;;;;;6.60;2.40;;;16.20;1.00;;;;;;5069459;28;20829;-53
2022/07/01 08:19:09;;;;;;;6.20;2.50;;;16.20;1.00;;;;;;5069840;28;20398;-53
2022/07/01 08:21:35;;;;;;;5.50;2.50;;;16.10;13.30;;;;;;5073899;28;20402;-53
2022/07/01 08:24:01;;;;;;;6.60;3.30;;;16.10;25.60;;;;;;5073906;28;20881;-52
2022/07/01 08:26:26;;;;;;;6.93;2.77;;;16.10;20.20;;;;;;5070432;28;20553;-54
2022/07/01 08:28:52;;;;;;;6.97;2.50;;;16.10;19.20;;;;;;5070199;28;20419;-53
2022/07/01 08:31:18;;;;;;;6.30;2.70;;;16.10;23.90;;;;;;5069854;28;20422;-53
2022/07/01 08:33:44;;;;;;;7.20;2.90;;;16.20;50.70;;;;;;5072369;28;20384;-55
2022/07/01 08:36:10;;;;;;;7.77;3.03;;;16.10;11.40;;;;;;5070209;28;20848;-53
2022/07/01 08:38:36;;;;;;;6.53;2.80;;;16.10;1.00;;;;;;5072416;28;20463;-54
2022/07/01 08:41:04;;;;;;;7.60;2.70;;;16.10;16.60;;;;;;5069202;28;20393;-54
2022/07/01 08:43:30;;;;;;;5.97;2.50;;;16.00;7.30;;;;;;5069943;28;20376;-54
2022/07/01 08:45:58;;;;;;;6.60;3.00;;;16.00;39.00;;;;;;5069793;28;20438;-53
2022/07/01 08:48:24;;;;;;;7.07;2.75;;;16.10;48.80;;;;;;5069994;28;20384;-53
2022/07/01 08:50:50;;;;;;;6.50;2.78;;;16.10;48.10;;;;;;5070129;28;20471;-53
2022/07/01 08:53:16;;;;;;;6.30;2.60;;;16.10;24.60;;;;;;5069428;28;20720;-52
2022/07/01 08:58:27;;;;;;;8.73;2.88;;;16.00;1.00;;;;;;5068423;28;20410;-52
2022/07/01 09:01:10;;;;;;;6.55;3.00;;;16.00;26.50;;;;;;5061163;28;20392;-53
2022/07/01 09:03:36;;;;;;;6.43;2.93;;;16.20;34.60;;;;;;5071081;28;20475;-53
2022/07/01 09:06:02;;;;;;;6.30;3.08;;;16.10;41.10;;;;;;5069280;28;20501;-52
2022/07/01 09:08:28;;;;;;;7.90;2.90;;;16.10;86.10;;;;;;5069696;28;20935;-52
2022/07/01 09:10:53;;;;;;;6.37;2.70;;;16.10;74.30;;;;;;5069793;28;20863;-54
2022/07/01 09:13:19;;;;;;;5.53;2.38;;;16.00;30.50;;;;;;5068998;28;20457;-54
2022/07/01 09:15:45;;;;;;;4.97;2.20;;;16.00;1.00;;;;;;5070076;28;20376;-56
2022/07/01 09:18:16;;;;;;;5.82;2.00;;;15.70;1.00;;;;;;5068928;28;20495;-54
2022/07/01 09:20:47;;;;;;;5.47;1.92;;;15.50;30.30;;;;;;5069844;28;20461;-56
2022/07/01 09:23:15;;;;;;;5.80;1.70;;;15.40;26.70;;;;;;5075870;28;20692;-54
2022/07/01 09:25:45;;;;;;;8.52;1.90;;;15.40;25.00;;;;;;5063764;28;20413;-54
2022/07/01 09:28:13;;;;;;;5.70;2.10;;;15.50;81.10;;;;;;5065177;28;20703;-54
2022/07/01 09:30:40;;;;;;;4.82;1.88;;;15.60;95.90;;;;;;5066506;28;20388;-54
2022/07/01 09:33:24;;;;;;;4.85;1.70;;;15.90;32.80;;;;;;5067712;28;20407;-54
2022/07/01 09:35:52;;;;;;;5.60;1.80;;;15.90;1.00;;;;;;5066551;28;20445;-55
2022/07/01 09:38:19;;;;;;;5.35;1.60;;;15.80;1.00;;;;;;5068747;28;20974;-55
2022/07/01 09:40:50;;;;;;;4.90;1.70;;;15.60;1.00;;;;;;5069121;28;20387;-56
2022/07/01 09:43:24;;;;;;;5.60;1.80;;;15.50;89.60;;;;;;5067677;28;20388;-55
2022/07/01 09:45:59;;;;;;;5.65;2.03;;;15.60;79.40;;;;;;5069235;28;20384;-55
2022/07/01 09:48:40;;;;;;;8.10;2.00;;;15.60;9.90;;;;;;5069385;28;20411;-54
2022/07/01 09:51:08;;;;;;;6.60;2.83;;;15.60;1.00;;;;;;5061237;28;20392;-55
2022/07/01 09:53:34;;;;;;;6.55;1.92;;;15.80;56.00;;;;;;5068688;28;20454;-55
2022/07/01 09:56:00;;;;;;;6.53;2.40;;;16.00;1.00;;;;;;5067483;28;20396;-54
2022/07/01 09:58:26;;;;;;;6.10;1.90;;;16.10;1.00;;;;;;5068480;28;20749;-55
2022/07/01 10:00:55;;;;;;;6.60;2.20;;;16.20;1.00;;;;;;5068707;28;20486;-55
2022/07/01 10:03:22;;;;;;;6.10;2.03;;;16.30;1.00;;;;;;5068206;28;20402;-54
2022/07/01 10:05:54;;;;;;;4.90;1.65;;;16.30;1.00;;;;;;5068069;28;20432;-54
2022/07/01 10:08:50;;;;;;;5.85;2.10;;;16.40;1.00;;;;;;5066504;28;20403;-56
2022/07/01 10:11:15;;;;;;;6.33;2.40;;;16.60;1.00;;;;;;5065734;28;20456;-54
2022/07/01 10:13:42;;;;;;;6.30;2.28;;;17.00;1.00;;;;;;5067029;28;20395;-55
2022/07/01 10:16:08;;;;;;;11.32;9.15;;;17.50;1.00;;;;;;5062649;28;20893;-55
2022/07/01 10:18:34;;;;;;;6.25;2.60;;;17.60;99.90;;;;;;5067602;28;20798;-55
2022/07/01 10:21:01;;;;;;;5.88;2.40;;;17.50;99.90;;;;;;5067182;28;20453;-55
2022/07/01 10:23:43;;;;;;;8.43;3.20;;;17.60;99.90;;;;;;5068589;28;20489;-55
2022/07/01 10:26:13;;;;;;;8.27;4.35;;;17.50;99.90;;;;;;5047078;28;20932;-55
2022/07/01 10:28:41;;;;;;;5.60;2.40;;;17.80;1.00;;;;;;5048580;28;20443;-55
2022/07/01 10:31:13;;;;;;;8.00;2.42;;;18.40;99.90;;;;;;5055833;28;20379;-55
2022/07/01 10:33:42;;;;;;;12.05;8.50;;;18.80;99.90;;;;;;5048353;28;20860;-55
2022/07/01 10:36:09;;;;;;;5.90;2.40;;;18.70;99.90;;;;;;5063495;28;20854;-55
2022/07/01 10:38:55;;;;;;;7.23;3.03;;;19.00;1.00;;;;;;5068198;28;20405;-55
2022/07/01 10:41:24;;;;;;;14.25;10.07;;;19.30;1.00;;;;;;5064762;28;20464;-55
2022/07/01 10:43:53;;;;;;;6.03;2.50;;;19.50;7.60;;;;;;5062478;28;20840;-55
2022/07/01 10:47:03;;;;;;;16.55;10.65;;;20.00;1.00;;;;;;5067402;28;20408;-55
2022/07/01 10:49:40;;;;;;;5.80;2.20;;;19.90;99.90;;;;;;5066270;28;20400;-55
2022/07/01 10:52:11;;;;;;;7.47;1.92;;;19.70;99.90;;;;;;5065501;28;20390;-55
2022/07/01 10:54:36;;;;;;;5.60;1.60;;;19.70;99.90;;;;;;5065815;28;20400;-54
2022/07/01 10:59:48;;;;;;;5.20;1.50;;;19.90;1.00;;;;;;5069328;28;20464;-55
2022/07/01 11:02:37;;;;;;;5.50;1.67;;;20.30;36.70;;;;;;5070698;28;20387;-57
2022/07/01 11:05:14;;;;;;;5.57;1.60;;;20.60;1.00;;;;;;5071519;28;20386;-55
2022/07/01 11:07:47;;;;;;;6.57;3.00;;;20.60;1.00;;;;;;5072436;28;20469;-56
2022/07/01 11:10:17;;;;;;;5.60;1.80;;;20.80;1.00;;;;;;5071600;28;20474;-56
2022/07/01 11:12:48;;;;;;;5.80;1.58;;;21.20;1.00;;;;;;5065606;28;20411;-55
2022/07/01 11:15:15;;;;;;;5.53;1.90;;;21.90;1.00;;;;;;5068168;28;20482;-54
2022/07/01 11:17:46;;;;;;;5.80;1.50;;;22.00;1.00;;;;;;5071992;28;20413;-54
2022/07/01 11:20:12;;;;;;;7.47;1.70;;;21.90;1.00;;;;;;5070893;28;20538;-54
2022/07/01 11:22:39;;;;;;;7.93;1.57;;;22.00;1.00;;;;;;5076722;28;20382;-54
2022/07/01 11:25:10;;;;;;;5.17;1.50;;;22.00;1.00;;;;;;5072492;28;20415;-53
2022/07/01 11:27:37;;;;;;;8.02;1.73;;;22.20;1.00;;;;;;5068983;28;20415;-56
2022/07/01 11:30:12;;;;;;;6.20;1.73;;;22.50;1.00;;;;;;5070552;28;20383;-54
2022/07/01 11:32:43;;;;;;;5.22;1.50;;;22.20;99.90;;;;;;5069853;28;20375;-54
2022/07/01 11:41:06;;;;;;;6.33;2.00;;;21.20;1.00;;;;;;5069792;28;20433;-53
2022/07/01 11:43:35;;;;;;;5.57;1.80;;;20.70;99.90;;;;;;5071643;28;20383;-54
2022/07/01 11:46:03;;;;;;;7.90;1.90;;;20.30;1.00;;;;;;5070596;28;20782;-53
2022/07/01 11:48:35;;;;;;;5.60;1.70;;;20.20;1.00;;;;;;5071963;28;20663;-54
2022/07/01 11:51:05;;;;;;;6.57;1.90;;;20.10;1.00;;;;;;5070727;28;20471;-53
2022/07/01 11:53:30;;;;;;;5.45;1.80;;;20.10;1.00;;;;;;5072276;28;20371;-54
2022/07/01 11:55:56;;;;;;;6.17;1.90;;;20.10;1.00;;;;;;5071341;28;20387;-55
2022/07/01 11:58:22;;;;;;;7.30;2.22;;;20.20;1.00;;;;;;5070807;28;20419;-54
2022/07/01 12:00:48;;;;;;;5.60;1.60;;;20.30;1.00;;;;;;5063566;28;20400;-54
2022/07/01 12:03:29;;;;;;;5.53;1.60;;;20.40;1.00;;;;;;5050781;28;20386;-54
2022/07/01 12:05:55;;;;;;;5.57;1.65;;;20.10;1.00;;;;;;5050267;28;20386;-54
2022/07/01 12:08:21;;;;;;;5.53;1.60;;;20.00;1.00;;;;;;5050886;28;20385;-54
2022/07/01 12:10:47;;;;;;;5.90;1.80;;;20.10;1.00;;;;;;5105209;27;20409;-54
2022/07/01 12:13:23;;;;;;;7.87;1.90;;;20.30;1.00;;;;;;5078778;28;20384;-55
2022/07/01 12:15:49;;;;;;;5.40;1.50;;;20.50;1.00;;;;;;5070405;28;20396;-55
2022/07/01 12:18:16;;;;;;;5.50;1.50;;;20.60;1.00;;;;;;5070408;28;20467;-54
2022/07/01 12:20:49;;;;;;;4.95;1.40;;;20.80;1.00;;;;;;5071141;28;20441;-55
2022/07/01 12:23:15;;;;;;;6.00;1.60;;;21.40;1.00;;;;;;5077589;28;20382;-54
2022/07/01 12:25:47;;;;;;;7.82;1.60;;;21.80;99.90;;;;;;5091147;28;20398;-55
2022/07/01 12:28:33;;;;;;;5.30;1.60;;;21.90;99.90;;;;;;5090457;28;20858;-55
2022/07/01 12:31:10;;;;;;;5.80;1.60;;;22.00;99.90;;;;;;5091225;28;20382;-54
2022/07/01 12:33:48;;;;;;;5.93;1.80;;;22.00;99.90;;;;;;5091523;28;20378;-54
2022/07/01 12:36:15;;;;;;;5.30;1.45;;;22.10;99.90;;;;;;5090229;28;20382;-55
2022/07/01 12:38:42;;;;;;;5.25;1.50;;;22.00;99.90;;;;;;5090863;28;20410;-54
2022/07/01 12:41:34;;;;;;;7.00;1.60;;;21.60;99.90;;;;;;5089934;28;20888;-54
2022/07/01 12:44:05;;;;;;;6.47;1.80;;;21.20;99.90;;;;;;5089075;28;20425;-53
2022/07/01 12:46:32;;;;;;;7.18;1.85;;;20.80;99.90;;;;;;5091284;28;20429;-54
2022/07/01 12:48:58;;;;;;;6.50;1.90;;;20.70;99.90;;;;;;5091388;28;20459;-54
2022/07/01 12:51:32;;;;;;;6.00;1.77;;;21.00;99.90;;;;;;5068426;28;20445;-54
2022/07/01 12:53:58;;;;;;;6.50;1.65;;;21.20;99.90;;;;;;5070309;28;20706;-54
2022/07/01 12:56:26;;;;;;;6.13;1.90;;;21.30;99.90;;;;;;5055710;28;20454;-55
2022/07/01 12:58:52;;;;;;;6.45;1.80;;;21.30;99.90;;;;;;5049032;28;20390;-55
2022/07/01 13:01:19;;;;;;;5.53;1.90;;;21.30;99.90;;;;;;5058928;28;20426;-55
2022/07/01 13:03:46;;;;;;;5.47;1.70;;;21.40;99.90;;;;;;5051045;28;20381;-55
2022/07/01 13:06:11;;;;;;;5.30;1.77;;;21.70;99.90;;;;;;5060613;28;20502;-54
2022/07/01 13:08:37;;;;;;;6.00;2.07;;;21.50;99.90;;;;;;5063695;28;20490;-55
2022/07/01 13:11:03;;;;;;;5.60;1.70;;;21.70;99.90;;;;;;5069489;28;20755;-53